VLI574 MMTJ-MMPB
Flight info
| Callsign | VLI574 |
|---|---|
| Flight time | 3h 5m |
| Altitude | 35000 |
| Route | AVENA5B AVENA UT18 GOLFO UQ103 NABAS UT49 DGO UJ5 QET UJ33 PBC |
| Aircraft | B733/M-SDE2E3FHIRW/S |
Departure
| Time | 2026-05-07 22:17 |
|---|---|
| Airport | General Abelardo L. Rodriguez International Airport (MMTJ) |
Arrival
| Time | 2026-05-08 01:22 |
|---|---|
| Airport | Hermanos Serdán International Airport (MMPB) |
| Time | Latitude | Longitude | Altitude | Speed | Heading |
|---|---|---|---|---|---|
| 2026-05-07 21:34 | 32.54496 | -116.97503 | 495 ft | 0 kts | 70° |
| 2026-05-07 22:04 | 32.54494 | -116.97511 | 495 ft | 2 kts | 70° |
| 2026-05-07 22:04 | 32.54489 | -116.97528 | 495 ft | 2 kts | 70° |
| 2026-05-07 22:04 | 32.54483 | -116.97545 | 495 ft | 2 kts | 70° |
| 2026-05-07 22:04 | 32.54478 | -116.97561 | 495 ft | 2 kts | 70° |
| 2026-05-07 22:05 | 32.54475 | -116.97576 | 495 ft | 1 kts | 109° |
| 2026-05-07 22:05 | 32.54485 | -116.97585 | 495 ft | 2 kts | 184° |
| 2026-05-07 22:05 | 32.54496 | -116.97581 | 495 ft | 0 kts | 190° |
| 2026-05-07 22:05 | 32.54498 | -116.97581 | 495 ft | 0 kts | 188° |
| 2026-05-07 22:08 | 32.54495 | -116.97581 | 495 ft | 1 kts | 189° |
| 2026-05-07 22:09 | 32.54482 | -116.97584 | 495 ft | 2 kts | 190° |
| 2026-05-07 22:09 | 32.54456 | -116.97589 | 495 ft | 4 kts | 190° |
| 2026-05-07 22:09 | 32.54420 | -116.97595 | 495 ft | 6 kts | 173° |
| 2026-05-07 22:09 | 32.54392 | -116.97536 | 495 ft | 10 kts | 98° |
| 2026-05-07 22:10 | 32.54380 | -116.97446 | 495 ft | 11 kts | 103° |
| 2026-05-07 22:10 | 32.54329 | -116.97390 | 495 ft | 10 kts | 137° |
| 2026-05-07 22:10 | 32.54310 | -116.97298 | 495 ft | 12 kts | 98° |
| 2026-05-07 22:10 | 32.54295 | -116.97190 | 495 ft | 13 kts | 99° |
| 2026-05-07 22:11 | 32.54279 | -116.97074 | 495 ft | 14 kts | 98° |
| 2026-05-07 22:11 | 32.54265 | -116.96944 | 495 ft | 16 kts | 98° |
| 2026-05-07 22:11 | 32.54248 | -116.96833 | 495 ft | 13 kts | 100° |
| 2026-05-07 22:11 | 32.54234 | -116.96721 | 495 ft | 14 kts | 98° |
| 2026-05-07 22:12 | 32.54218 | -116.96598 | 495 ft | 14 kts | 99° |
| 2026-05-07 22:12 | 32.54203 | -116.96490 | 495 ft | 11 kts | 99° |
| 2026-05-07 22:12 | 32.54190 | -116.96389 | 495 ft | 13 kts | 98° |
| 2026-05-07 22:12 | 32.54176 | -116.96278 | 495 ft | 14 kts | 98° |
| 2026-05-07 22:13 | 32.54166 | -116.96201 | 495 ft | 8 kts | 99° |
| 2026-05-07 22:13 | 32.54133 | -116.96148 | 495 ft | 9 kts | 173° |
| 2026-05-07 22:13 | 32.54092 | -116.96154 | 495 ft | 3 kts | 188° |
| 2026-05-07 22:13 | 32.54063 | -116.96159 | 495 ft | 4 kts | 188° |
| 2026-05-07 22:14 | 32.54022 | -116.96163 | 495 ft | 7 kts | 171° |
| 2026-05-07 22:14 | 32.53987 | -116.96107 | 495 ft | 11 kts | 99° |
| 2026-05-07 22:14 | 32.53973 | -116.96004 | 495 ft | 13 kts | 99° |
| 2026-05-07 22:14 | 32.53956 | -116.95883 | 495 ft | 16 kts | 99° |
| 2026-05-07 22:15 | 32.53938 | -116.95742 | 495 ft | 16 kts | 98° |
| 2026-05-07 22:15 | 32.53923 | -116.95626 | 495 ft | 10 kts | 99° |
| 2026-05-07 22:15 | 32.53922 | -116.95541 | 495 ft | 10 kts | 72° |
| 2026-05-07 22:15 | 32.53934 | -116.95463 | 495 ft | 8 kts | 117° |
| 2026-05-07 22:16 | 32.53901 | -116.95451 | 495 ft | 2 kts | 231° |
| 2026-05-07 22:16 | 32.53903 | -116.95481 | 495 ft | 5 kts | 282° |
| 2026-05-07 22:16 | 32.53914 | -116.95562 | 495 ft | 22 kts | 277° |
| 2026-05-07 22:16 | 32.53982 | -116.96075 | 495 ft | 101 kts | 279° |
| 2026-05-07 22:17 | 32.54132 | -116.97195 | 539 ft | 163 kts | 279° |
| 2026-05-07 22:17 | 32.54219 | -116.98624 | 1015 ft | 180 kts | 259° |
| 2026-05-07 22:17 | 32.53800 | -117.00088 | 1625 ft | 193 kts | 256° |
| 2026-05-07 22:17 | 32.53456 | -117.01657 | 2389 ft | 196 kts | 250° |
| 2026-05-07 22:18 | 32.52961 | -117.03186 | 3104 ft | 198 kts | 251° |
| 2026-05-07 22:18 | 32.52168 | -117.06445 | 4093 ft | 218 kts | 256° |
| 2026-05-07 22:18 | 32.51830 | -117.08276 | 4533 ft | 231 kts | 256° |
| 2026-05-07 22:19 | 32.51492 | -117.10176 | 5074 ft | 241 kts | 257° |
| 2026-05-07 22:19 | 32.51161 | -117.12189 | 5547 ft | 253 kts | 257° |
| 2026-05-07 22:19 | 32.50807 | -117.14291 | 6028 ft | 264 kts | 257° |
| 2026-05-07 22:19 | 32.50405 | -117.16426 | 6605 ft | 269 kts | 249° |
| 2026-05-07 22:20 | 32.49511 | -117.18409 | 7115 ft | 274 kts | 228° |
| 2026-05-07 22:20 | 32.48089 | -117.19827 | 7846 ft | 270 kts | 206° |
| 2026-05-07 22:20 | 32.46323 | -117.20553 | 8502 ft | 270 kts | 186° |
| 2026-05-07 22:20 | 32.44461 | -117.20358 | 9157 ft | 271 kts | 161° |
| 2026-05-07 22:21 | 32.42852 | -117.19175 | 9649 ft | 280 kts | 137° |
| 2026-05-07 22:21 | 32.41552 | -117.17373 | 10166 ft | 288 kts | 131° |
| 2026-05-07 22:21 | 32.40310 | -117.15524 | 10895 ft | 286 kts | 130° |
| 2026-05-07 22:21 | 32.39072 | -117.13670 | 11490 ft | 290 kts | 131° |
| 2026-05-07 22:22 | 32.37728 | -117.11790 | 11914 ft | 298 kts | 128° |
| 2026-05-07 22:22 | 32.36620 | -117.09639 | 12234 ft | 311 kts | 121° |
| 2026-05-07 22:22 | 32.35517 | -117.07355 | 12336 ft | 330 kts | 118° |
| 2026-05-07 22:22 | 32.34575 | -117.04772 | 12652 ft | 341 kts | 111° |
| 2026-05-07 22:23 | 32.33928 | -117.02024 | 13324 ft | 342 kts | 104° |
| 2026-05-07 22:23 | 32.33498 | -116.99240 | 13933 ft | 344 kts | 99° |
| 2026-05-07 22:23 | 32.33339 | -116.96377 | 14507 ft | 348 kts | 94° |
| 2026-05-07 22:23 | 32.33476 | -116.93473 | 14973 ft | 355 kts | 84° |
| 2026-05-07 22:24 | 32.33912 | -116.90560 | 15443 ft | 360 kts | 80° |
| 2026-05-07 22:24 | 32.34655 | -116.87672 | 15924 ft | 367 kts | 72° |
| 2026-05-07 22:24 | 32.35722 | -116.84892 | 16399 ft | 373 kts | 64° |
| 2026-05-07 22:24 | 32.37248 | -116.82267 | 16718 ft | 385 kts | 54° |
| 2026-05-07 22:25 | 32.39008 | -116.79827 | 17133 ft | 389 kts | 54° |
| 2026-05-07 22:25 | 32.40515 | -116.77194 | 17558 ft | 385 kts | 68° |
| 2026-05-07 22:25 | 32.41325 | -116.74159 | 17898 ft | 381 kts | 86° |
| 2026-05-07 22:25 | 32.41200 | -116.71086 | 18335 ft | 371 kts | 109° |
| 2026-05-07 22:26 | 32.40083 | -116.68345 | 18746 ft | 365 kts | 129° |
| 2026-05-07 22:26 | 32.38582 | -116.65923 | 19183 ft | 368 kts | 125° |
| 2026-05-07 22:26 | 32.37252 | -116.63303 | 19780 ft | 366 kts | 122° |
| 2026-05-07 22:26 | 32.36009 | -116.60671 | 20252 ft | 365 kts | 125° |
| 2026-05-07 22:27 | 32.34530 | -116.58205 | 20618 ft | 366 kts | 129° |
| 2026-05-07 22:27 | 32.33020 | -116.55756 | 21005 ft | 368 kts | 129° |
| 2026-05-07 22:27 | 32.31495 | -116.53217 | 21373 ft | 371 kts | 129° |
| 2026-05-07 22:27 | 32.29947 | -116.50600 | 21732 ft | 373 kts | 128° |
| 2026-05-07 22:28 | 32.28444 | -116.48042 | 22104 ft | 375 kts | 129° |
| 2026-05-07 22:28 | 32.26920 | -116.45429 | 22447 ft | 378 kts | 128° |
| 2026-05-07 22:28 | 32.25459 | -116.42788 | 22794 ft | 380 kts | 127° |
| 2026-05-07 22:28 | 32.23995 | -116.40113 | 23118 ft | 382 kts | 127° |
| 2026-05-07 22:29 | 32.22528 | -116.37435 | 23406 ft | 385 kts | 127° |
| 2026-05-07 22:29 | 32.21048 | -116.34732 | 23693 ft | 388 kts | 128° |
| 2026-05-07 22:29 | 32.19572 | -116.32032 | 23920 ft | 391 kts | 128° |
| 2026-05-07 22:29 | 32.18088 | -116.29315 | 24213 ft | 393 kts | 128° |
| 2026-05-07 22:30 | 32.16595 | -116.26592 | 24463 ft | 395 kts | 128° |
| 2026-05-07 22:30 | 32.15080 | -116.23833 | 24731 ft | 397 kts | 128° |
| 2026-05-07 22:30 | 32.13537 | -116.21025 | 24963 ft | 399 kts | 129° |
| 2026-05-07 22:30 | 32.11983 | -116.18201 | 25161 ft | 402 kts | 129° |
| 2026-05-07 22:31 | 32.10416 | -116.15356 | 25398 ft | 404 kts | 129° |
| 2026-05-07 22:31 | 32.08827 | -116.12471 | 25625 ft | 406 kts | 129° |
| 2026-05-07 22:31 | 32.07285 | -116.09676 | 25857 ft | 407 kts | 129° |
| 2026-05-07 22:31 | 32.05676 | -116.06760 | 26072 ft | 409 kts | 129° |
| 2026-05-07 22:32 | 32.04077 | -116.03865 | 26291 ft | 410 kts | 129° |
| 2026-05-07 22:32 | 32.02463 | -116.00945 | 26487 ft | 412 kts | 129° |
| 2026-05-07 22:32 | 32.00857 | -115.98041 | 26709 ft | 414 kts | 129° |
| 2026-05-07 22:32 | 31.99224 | -115.95091 | 26913 ft | 415 kts | 129° |
| 2026-05-07 22:33 | 31.97599 | -115.92160 | 27076 ft | 418 kts | 129° |
| 2026-05-07 22:33 | 31.95956 | -115.89195 | 27276 ft | 419 kts | 130° |
| 2026-05-07 22:33 | 31.94341 | -115.86285 | 27445 ft | 421 kts | 130° |
| 2026-05-07 22:33 | 31.92740 | -115.83402 | 27629 ft | 422 kts | 130° |
| 2026-05-07 22:34 | 31.91102 | -115.80454 | 27789 ft | 424 kts | 130° |
| 2026-05-07 22:34 | 31.89458 | -115.77537 | 27996 ft | 424 kts | 130° |
| 2026-05-07 22:34 | 31.87827 | -115.74665 | 28200 ft | 426 kts | 130° |
| 2026-05-07 22:34 | 31.86183 | -115.71744 | 28464 ft | 425 kts | 130° |
| 2026-05-07 22:35 | 31.84556 | -115.68838 | 28792 ft | 423 kts | 130° |
| 2026-05-07 22:35 | 31.82937 | -115.65942 | 29063 ft | 422 kts | 130° |
| 2026-05-07 22:35 | 31.81306 | -115.63026 | 29374 ft | 423 kts | 130° |
| 2026-05-07 22:35 | 31.79637 | -115.60043 | 29739 ft | 424 kts | 131° |
| 2026-05-07 22:36 | 31.78008 | -115.57131 | 30117 ft | 424 kts | 131° |
| 2026-05-07 22:36 | 31.76344 | -115.54160 | 30489 ft | 424 kts | 131° |
| 2026-05-07 22:36 | 31.74693 | -115.51215 | 30827 ft | 425 kts | 131° |
| 2026-05-07 22:36 | 31.73034 | -115.48257 | 31142 ft | 426 kts | 131° |
| 2026-05-07 22:37 | 31.71377 | -115.45306 | 31460 ft | 426 kts | 131° |
| 2026-05-07 22:37 | 31.69718 | -115.42350 | 31826 ft | 426 kts | 132° |
| 2026-05-07 22:37 | 31.68047 | -115.39379 | 32103 ft | 427 kts | 132° |
| 2026-05-07 22:37 | 31.66369 | -115.36395 | 32425 ft | 427 kts | 132° |
| 2026-05-07 22:38 | 31.64704 | -115.33437 | 32648 ft | 429 kts | 132° |
| 2026-05-07 22:38 | 31.63007 | -115.30428 | 32888 ft | 429 kts | 133° |
| 2026-05-07 22:38 | 31.61301 | -115.27424 | 33178 ft | 429 kts | 133° |
| 2026-05-07 22:38 | 31.59651 | -115.24509 | 33455 ft | 428 kts | 133° |
| 2026-05-07 22:39 | 31.57983 | -115.21561 | 33688 ft | 429 kts | 133° |
| 2026-05-07 22:39 | 31.56300 | -115.18586 | 33843 ft | 431 kts | 133° |
| 2026-05-07 22:39 | 31.54636 | -115.15644 | 34067 ft | 431 kts | 133° |
| 2026-05-07 22:39 | 31.52947 | -115.12661 | 34270 ft | 431 kts | 134° |
| 2026-05-07 22:40 | 31.51292 | -115.09740 | 34446 ft | 432 kts | 134° |
| 2026-05-07 22:40 | 31.49592 | -115.06742 | 34606 ft | 434 kts | 134° |
| 2026-05-07 22:40 | 31.47897 | -115.03757 | 34737 ft | 435 kts | 134° |
| 2026-05-07 22:40 | 31.46216 | -115.00797 | 34849 ft | 437 kts | 134° |
| 2026-05-07 22:41 | 31.44534 | -114.97836 | 34915 ft | 437 kts | 134° |
| 2026-05-07 22:41 | 31.41142 | -114.91870 | 34893 ft | 436 kts | 134° |
| 2026-05-07 22:42 | 31.37748 | -114.85949 | 34872 ft | 436 kts | 133° |
| 2026-05-07 22:42 | 31.34409 | -114.80064 | 34884 ft | 434 kts | 134° |
| 2026-05-07 22:43 | 31.31037 | -114.74163 | 34890 ft | 433 kts | 134° |
| 2026-05-07 22:43 | 31.27684 | -114.68308 | 34884 ft | 435 kts | 134° |
| 2026-05-07 22:44 | 31.24298 | -114.62400 | 34893 ft | 436 kts | 134° |
| 2026-05-07 22:44 | 31.20909 | -114.56494 | 34891 ft | 434 kts | 134° |
| 2026-05-07 22:45 | 31.17485 | -114.50542 | 34890 ft | 434 kts | 134° |
| 2026-05-07 22:45 | 31.14059 | -114.44595 | 34890 ft | 434 kts | 134° |
| 2026-05-07 22:46 | 31.10603 | -114.38599 | 34887 ft | 434 kts | 134° |
| 2026-05-07 22:46 | 31.07130 | -114.32608 | 34859 ft | 431 kts | 137° |
| 2026-05-07 22:47 | 31.03363 | -114.27042 | 34891 ft | 428 kts | 139° |
| 2026-05-07 22:47 | 30.99614 | -114.21546 | 34890 ft | 430 kts | 139° |
| 2026-05-07 22:48 | 30.95875 | -114.16016 | 34886 ft | 431 kts | 139° |
| 2026-05-07 22:48 | 30.92148 | -114.10506 | 34892 ft | 432 kts | 140° |
| 2026-05-07 22:49 | 30.88382 | -114.04953 | 34868 ft | 432 kts | 140° |
| 2026-05-07 22:49 | 30.84644 | -113.99468 | 34888 ft | 433 kts | 140° |
| 2026-05-07 22:50 | 30.80874 | -113.93920 | 34888 ft | 432 kts | 140° |
| 2026-05-07 22:50 | 30.77140 | -113.88433 | 34888 ft | 433 kts | 140° |
| 2026-05-07 22:51 | 30.73387 | -113.82919 | 34895 ft | 431 kts | 140° |
| 2026-05-07 22:51 | 30.69650 | -113.77444 | 34892 ft | 433 kts | 140° |
| 2026-05-07 22:52 | 30.65895 | -113.71948 | 34887 ft | 434 kts | 140° |
| 2026-05-07 22:52 | 30.62133 | -113.66446 | 34904 ft | 433 kts | 140° |
| 2026-05-07 22:53 | 30.58371 | -113.60954 | 34892 ft | 433 kts | 140° |
| 2026-05-07 22:53 | 30.54595 | -113.55450 | 34905 ft | 433 kts | 140° |
| 2026-05-07 22:54 | 30.50844 | -113.49989 | 34893 ft | 433 kts | 140° |
| 2026-05-07 22:54 | 30.47076 | -113.44510 | 34906 ft | 433 kts | 140° |
| 2026-05-07 22:55 | 30.43337 | -113.39082 | 34889 ft | 432 kts | 140° |
| 2026-05-07 22:55 | 30.39530 | -113.33560 | 34877 ft | 433 kts | 140° |
| 2026-05-07 22:56 | 30.35756 | -113.28066 | 34915 ft | 431 kts | 141° |
| 2026-05-07 22:56 | 30.31972 | -113.22592 | 34951 ft | 432 kts | 140° |
| 2026-05-07 22:57 | 30.28192 | -113.17136 | 34984 ft | 434 kts | 140° |
| 2026-05-07 22:57 | 30.24394 | -113.11657 | 35011 ft | 432 kts | 141° |
| 2026-05-07 22:58 | 30.20634 | -113.06243 | 35007 ft | 431 kts | 141° |
| 2026-05-07 22:58 | 30.16857 | -113.00815 | 35002 ft | 433 kts | 140° |
| 2026-05-07 22:59 | 30.13020 | -112.95307 | 35010 ft | 436 kts | 140° |
| 2026-05-07 22:59 | 30.09195 | -112.89822 | 35006 ft | 439 kts | 139° |
| 2026-05-07 23:00 | 30.05306 | -112.84257 | 35014 ft | 442 kts | 139° |
| 2026-05-07 23:00 | 30.01420 | -112.78697 | 35014 ft | 446 kts | 139° |
| 2026-05-07 23:01 | 29.97489 | -112.73078 | 35015 ft | 446 kts | 139° |
| 2026-05-07 23:01 | 29.93578 | -112.67500 | 35007 ft | 445 kts | 139° |
| 2026-05-07 23:02 | 29.89663 | -112.61926 | 35008 ft | 445 kts | 139° |
| 2026-05-07 23:02 | 29.85726 | -112.56356 | 35008 ft | 445 kts | 139° |
| 2026-05-07 23:03 | 29.81787 | -112.50770 | 35011 ft | 445 kts | 139° |
| 2026-05-07 23:03 | 29.77861 | -112.45202 | 35007 ft | 444 kts | 139° |
| 2026-05-07 23:04 | 29.73947 | -112.39659 | 35011 ft | 444 kts | 139° |
| 2026-05-07 23:04 | 29.70012 | -112.34094 | 34992 ft | 446 kts | 139° |
| 2026-05-07 23:05 | 29.66089 | -112.28524 | 35010 ft | 443 kts | 139° |
| 2026-05-07 23:05 | 29.62133 | -112.22939 | 35008 ft | 444 kts | 139° |
| 2026-05-07 23:06 | 29.58207 | -112.17411 | 35012 ft | 444 kts | 139° |
| 2026-05-07 23:06 | 29.54285 | -112.11895 | 35010 ft | 444 kts | 139° |
| 2026-05-07 23:07 | 29.50333 | -112.06343 | 35011 ft | 444 kts | 139° |
| 2026-05-07 23:07 | 29.46385 | -112.00806 | 35018 ft | 445 kts | 139° |
| 2026-05-07 23:08 | 29.42455 | -111.95300 | 35017 ft | 444 kts | 139° |
| 2026-05-07 23:08 | 29.38488 | -111.89752 | 35018 ft | 445 kts | 139° |
| 2026-05-07 23:09 | 29.34549 | -111.84248 | 35019 ft | 445 kts | 139° |
| 2026-05-07 23:09 | 29.30581 | -111.78713 | 35017 ft | 445 kts | 139° |
| 2026-05-07 23:10 | 29.26602 | -111.73169 | 35023 ft | 444 kts | 139° |
| 2026-05-07 23:10 | 29.22652 | -111.67674 | 35019 ft | 444 kts | 139° |
| 2026-05-07 23:11 | 29.18701 | -111.62184 | 35015 ft | 444 kts | 139° |
| 2026-05-07 23:11 | 29.14727 | -111.56670 | 35019 ft | 445 kts | 139° |
| 2026-05-07 23:12 | 29.10760 | -111.51173 | 35019 ft | 443 kts | 139° |
| 2026-05-07 23:12 | 29.06766 | -111.45645 | 35016 ft | 444 kts | 139° |
| 2026-05-07 23:13 | 29.02806 | -111.40174 | 35019 ft | 446 kts | 138° |
| 2026-05-07 23:13 | 28.98821 | -111.34673 | 35018 ft | 446 kts | 138° |
| 2026-05-07 23:14 | 28.94865 | -111.29192 | 35012 ft | 444 kts | 138° |
| 2026-05-07 23:14 | 28.90884 | -111.23707 | 35015 ft | 447 kts | 138° |
| 2026-05-07 23:15 | 28.86864 | -111.18199 | 35017 ft | 446 kts | 138° |
| 2026-05-07 23:15 | 28.82893 | -111.12762 | 35017 ft | 446 kts | 138° |
| 2026-05-07 23:16 | 28.78887 | -111.07272 | 35015 ft | 446 kts | 138° |
| 2026-05-07 23:16 | 28.74860 | -111.01759 | 35015 ft | 449 kts | 137° |
| 2026-05-07 23:17 | 28.70731 | -110.96434 | 35020 ft | 449 kts | 139° |
| 2026-05-07 23:17 | 28.66629 | -110.90947 | 35023 ft | 451 kts | 137° |
| 2026-05-07 23:18 | 28.62548 | -110.85384 | 35022 ft | 451 kts | 137° |
| 2026-05-07 23:18 | 28.58523 | -110.79896 | 35019 ft | 451 kts | 137° |
| 2026-05-07 23:19 | 28.54465 | -110.74372 | 35018 ft | 451 kts | 137° |
| 2026-05-07 23:19 | 28.50384 | -110.68840 | 35021 ft | 452 kts | 137° |
| 2026-05-07 23:20 | 28.46438 | -110.63490 | 35021 ft | 450 kts | 137° |
| 2026-05-07 23:20 | 28.42456 | -110.58096 | 35019 ft | 451 kts | 137° |
| 2026-05-07 23:21 | 28.38461 | -110.52692 | 35012 ft | 451 kts | 137° |
| 2026-05-07 23:21 | 28.34479 | -110.47312 | 35022 ft | 451 kts | 137° |
| 2026-05-07 23:22 | 28.30440 | -110.41863 | 35018 ft | 451 kts | 137° |
| 2026-05-07 23:22 | 28.26410 | -110.36432 | 35018 ft | 452 kts | 136° |
| 2026-05-07 23:23 | 28.22348 | -110.30945 | 35005 ft | 450 kts | 137° |
| 2026-05-07 23:23 | 28.18300 | -110.25492 | 35017 ft | 450 kts | 137° |
| 2026-05-07 23:24 | 28.14266 | -110.20077 | 35020 ft | 451 kts | 137° |
| 2026-05-07 23:24 | 28.10223 | -110.14656 | 35021 ft | 451 kts | 137° |
| 2026-05-07 23:25 | 28.06202 | -110.09272 | 35016 ft | 450 kts | 137° |
| 2026-05-07 23:25 | 28.02181 | -110.03897 | 35006 ft | 450 kts | 137° |
| 2026-05-07 23:26 | 27.98144 | -109.98505 | 35004 ft | 451 kts | 137° |
| 2026-05-07 23:26 | 27.94098 | -109.93109 | 34996 ft | 451 kts | 137° |
| 2026-05-07 23:27 | 27.87967 | -109.84954 | 34968 ft | 450 kts | 137° |
| 2026-05-07 23:27 | 27.83868 | -109.79525 | 34995 ft | 450 kts | 137° |
| 2026-05-07 23:28 | 27.79782 | -109.74103 | 34985 ft | 451 kts | 137° |
| 2026-05-07 23:28 | 27.75657 | -109.68632 | 34965 ft | 451 kts | 137° |
| 2026-05-07 23:29 | 27.71542 | -109.63180 | 34932 ft | 451 kts | 137° |
| 2026-05-07 23:29 | 27.67407 | -109.57709 | 34915 ft | 451 kts | 137° |
| 2026-05-07 23:30 | 27.63305 | -109.52290 | 34915 ft | 451 kts | 137° |
| 2026-05-07 23:30 | 27.59223 | -109.46904 | 34915 ft | 451 kts | 137° |
| 2026-05-07 23:31 | 27.55083 | -109.41447 | 34911 ft | 450 kts | 137° |
| 2026-05-07 23:31 | 27.50918 | -109.35967 | 34904 ft | 451 kts | 137° |
| 2026-05-07 23:32 | 27.46841 | -109.30585 | 34902 ft | 449 kts | 137° |
| 2026-05-07 23:32 | 27.42728 | -109.25174 | 34909 ft | 450 kts | 138° |
| 2026-05-07 23:33 | 27.38487 | -109.19614 | 34910 ft | 450 kts | 137° |
| 2026-05-07 23:33 | 27.34296 | -109.14124 | 34909 ft | 451 kts | 137° |
| 2026-05-07 23:34 | 27.30080 | -109.08612 | 34907 ft | 453 kts | 137° |
| 2026-05-07 23:34 | 27.25804 | -109.03027 | 34911 ft | 455 kts | 137° |
| 2026-05-07 23:35 | 27.21527 | -108.97447 | 34911 ft | 457 kts | 137° |
| 2026-05-07 23:35 | 27.17239 | -108.91859 | 34912 ft | 458 kts | 137° |
| 2026-05-07 23:36 | 27.12942 | -108.86268 | 34907 ft | 457 kts | 137° |
| 2026-05-07 23:36 | 27.08646 | -108.80685 | 34907 ft | 457 kts | 137° |
| 2026-05-07 23:37 | 27.04355 | -108.75117 | 34911 ft | 458 kts | 137° |
| 2026-05-07 23:37 | 27.00044 | -108.69528 | 34917 ft | 456 kts | 136° |
| 2026-05-07 23:38 | 26.95762 | -108.63983 | 34909 ft | 451 kts | 136° |
| 2026-05-07 23:38 | 26.91512 | -108.58495 | 34901 ft | 449 kts | 135° |
| 2026-05-07 23:39 | 26.87295 | -108.53062 | 34895 ft | 446 kts | 135° |
| 2026-05-07 23:39 | 26.83045 | -108.47599 | 34905 ft | 446 kts | 135° |
| 2026-05-07 23:40 | 26.78824 | -108.42164 | 34910 ft | 447 kts | 135° |
| 2026-05-07 23:40 | 26.74631 | -108.36769 | 34911 ft | 446 kts | 135° |
| 2026-05-07 23:41 | 26.70424 | -108.31346 | 34891 ft | 446 kts | 135° |
| 2026-05-07 23:41 | 26.66199 | -108.25909 | 34911 ft | 446 kts | 136° |
| 2026-05-07 23:42 | 26.61952 | -108.20464 | 34908 ft | 446 kts | 136° |
| 2026-05-07 23:42 | 26.57777 | -108.15021 | 34909 ft | 448 kts | 132° |
| 2026-05-07 23:43 | 26.53932 | -108.09191 | 34908 ft | 449 kts | 129° |
| 2026-05-07 23:43 | 26.50172 | -108.03307 | 34908 ft | 450 kts | 129° |
| 2026-05-07 23:44 | 26.46405 | -107.97428 | 34908 ft | 450 kts | 129° |
| 2026-05-07 23:44 | 26.42674 | -107.91617 | 34910 ft | 450 kts | 130° |
| 2026-05-07 23:45 | 26.38912 | -107.85764 | 34908 ft | 450 kts | 130° |
| 2026-05-07 23:45 | 26.35111 | -107.79859 | 34910 ft | 450 kts | 130° |
| 2026-05-07 23:46 | 26.31328 | -107.73989 | 34909 ft | 449 kts | 130° |
| 2026-05-07 23:46 | 26.27526 | -107.68097 | 34907 ft | 450 kts | 129° |
| 2026-05-07 23:47 | 26.23767 | -107.62279 | 34911 ft | 449 kts | 130° |
| 2026-05-07 23:47 | 26.19950 | -107.56380 | 34910 ft | 449 kts | 130° |
| 2026-05-07 23:48 | 26.16165 | -107.50536 | 34908 ft | 450 kts | 130° |
| 2026-05-07 23:48 | 26.12419 | -107.44760 | 34910 ft | 449 kts | 129° |
| 2026-05-07 23:49 | 26.08671 | -107.38989 | 34908 ft | 449 kts | 130° |
| 2026-05-07 23:49 | 26.04894 | -107.33176 | 34872 ft | 450 kts | 130° |
| 2026-05-07 23:50 | 26.01108 | -107.27338 | 34909 ft | 449 kts | 130° |
| 2026-05-07 23:50 | 25.97283 | -107.21468 | 34911 ft | 449 kts | 130° |
| 2026-05-07 23:51 | 25.93501 | -107.15673 | 34909 ft | 449 kts | 130° |
| 2026-05-07 23:51 | 25.89782 | -107.09982 | 34907 ft | 449 kts | 130° |
| 2026-05-07 23:52 | 25.85982 | -107.04248 | 34908 ft | 448 kts | 131° |
| 2026-05-07 23:52 | 25.82144 | -106.98461 | 34906 ft | 451 kts | 130° |
| 2026-05-07 23:53 | 25.78292 | -106.92568 | 34911 ft | 452 kts | 129° |
| 2026-05-07 23:53 | 25.74451 | -106.86691 | 34909 ft | 454 kts | 129° |
| 2026-05-07 23:54 | 25.70621 | -106.80836 | 34909 ft | 455 kts | 129° |
| 2026-05-07 23:54 | 25.66847 | -106.75076 | 34912 ft | 456 kts | 129° |
| 2026-05-07 23:55 | 25.62997 | -106.69209 | 34911 ft | 455 kts | 129° |
| 2026-05-07 23:55 | 25.59172 | -106.63384 | 34907 ft | 455 kts | 129° |
| 2026-05-07 23:56 | 25.55358 | -106.57585 | 34908 ft | 455 kts | 129° |
| 2026-05-07 23:56 | 25.51582 | -106.51850 | 34910 ft | 455 kts | 129° |
| 2026-05-07 23:57 | 25.47751 | -106.46040 | 34908 ft | 455 kts | 129° |
| 2026-05-07 23:57 | 25.43863 | -106.40151 | 34910 ft | 455 kts | 129° |
| 2026-05-07 23:58 | 25.39994 | -106.34419 | 34902 ft | 455 kts | 130° |
| 2026-05-07 23:58 | 25.36125 | -106.28722 | 34908 ft | 453 kts | 130° |
| 2026-05-07 23:59 | 25.32250 | -106.23003 | 34908 ft | 454 kts | 130° |
| 2026-05-07 23:59 | 25.28350 | -106.17255 | 34910 ft | 454 kts | 130° |
| 2026-05-08 00:00 | 25.24440 | -106.11500 | 34908 ft | 454 kts | 130° |
| 2026-05-08 00:00 | 25.20582 | -106.05829 | 34910 ft | 454 kts | 130° |
| 2026-05-08 00:01 | 25.16654 | -106.00061 | 34909 ft | 454 kts | 130° |
| 2026-05-08 00:01 | 25.12714 | -105.94282 | 34908 ft | 453 kts | 130° |
| 2026-05-08 00:02 | 25.08825 | -105.88586 | 34913 ft | 452 kts | 130° |
| 2026-05-08 00:02 | 25.04952 | -105.82946 | 34909 ft | 450 kts | 130° |
| 2026-05-08 00:03 | 25.01133 | -105.77404 | 34909 ft | 448 kts | 130° |
| 2026-05-08 00:03 | 24.97336 | -105.71851 | 34909 ft | 446 kts | 130° |
| 2026-05-08 00:04 | 24.93563 | -105.66341 | 34906 ft | 444 kts | 129° |
| 2026-05-08 00:04 | 24.89798 | -105.60855 | 34906 ft | 445 kts | 129° |
| 2026-05-08 00:05 | 24.85960 | -105.55299 | 34908 ft | 445 kts | 129° |
| 2026-05-08 00:05 | 24.82036 | -105.49603 | 34910 ft | 445 kts | 129° |
| 2026-05-08 00:06 | 24.78190 | -105.44017 | 34908 ft | 445 kts | 129° |
| 2026-05-08 00:06 | 24.74349 | -105.38444 | 34909 ft | 445 kts | 129° |
| 2026-05-08 00:07 | 24.70523 | -105.32893 | 34872 ft | 446 kts | 130° |
| 2026-05-08 00:07 | 24.66659 | -105.27276 | 34972 ft | 443 kts | 130° |
| 2026-05-08 00:08 | 24.64757 | -105.24525 | 35094 ft | 444 kts | 130° |
| 2026-05-08 00:08 | 24.62874 | -105.21833 | 35156 ft | 446 kts | 130° |
| 2026-05-08 00:08 | 24.59035 | -105.16337 | 35158 ft | 447 kts | 130° |
| 2026-05-08 00:09 | 24.55174 | -105.10777 | 35146 ft | 445 kts | 130° |
| 2026-05-08 00:09 | 24.51319 | -105.05230 | 35143 ft | 446 kts | 130° |
| 2026-05-08 00:10 | 24.47458 | -104.99680 | 35148 ft | 448 kts | 129° |
| 2026-05-08 00:10 | 24.43538 | -104.94051 | 35149 ft | 449 kts | 129° |
| 2026-05-08 00:11 | 24.39633 | -104.88450 | 35148 ft | 449 kts | 129° |
| 2026-05-08 00:11 | 24.35721 | -104.82844 | 35146 ft | 449 kts | 129° |
| 2026-05-08 00:12 | 24.31821 | -104.77264 | 35148 ft | 449 kts | 129° |
| 2026-05-08 00:12 | 24.27854 | -104.71593 | 35148 ft | 449 kts | 129° |
| 2026-05-08 00:13 | 24.23964 | -104.66039 | 35145 ft | 449 kts | 129° |
| 2026-05-08 00:13 | 24.20075 | -104.60492 | 35150 ft | 450 kts | 129° |
| 2026-05-08 00:14 | 24.16167 | -104.54923 | 35148 ft | 450 kts | 129° |
| 2026-05-08 00:14 | 24.12276 | -104.49344 | 35147 ft | 450 kts | 128° |
| 2026-05-08 00:15 | 24.08514 | -104.43792 | 35149 ft | 449 kts | 128° |
| 2026-05-08 00:15 | 24.04787 | -104.38264 | 35147 ft | 450 kts | 128° |
| 2026-05-08 00:16 | 24.00960 | -104.32584 | 35112 ft | 450 kts | 128° |
| 2026-05-08 00:16 | 23.97161 | -104.26943 | 35147 ft | 449 kts | 128° |
| 2026-05-08 00:17 | 23.93346 | -104.21301 | 35148 ft | 449 kts | 128° |
| 2026-05-08 00:17 | 23.89515 | -104.15648 | 35138 ft | 449 kts | 128° |
| 2026-05-08 00:18 | 23.85678 | -104.10021 | 35148 ft | 449 kts | 128° |
| 2026-05-08 00:18 | 23.81865 | -104.04413 | 35148 ft | 449 kts | 128° |
| 2026-05-08 00:19 | 23.78036 | -103.98778 | 35146 ft | 449 kts | 128° |
| 2026-05-08 00:19 | 23.74226 | -103.93179 | 35148 ft | 450 kts | 128° |
| 2026-05-08 00:20 | 23.70438 | -103.87618 | 35146 ft | 449 kts | 128° |
| 2026-05-08 00:20 | 23.66584 | -103.82016 | 35147 ft | 450 kts | 128° |
| 2026-05-08 00:21 | 23.62773 | -103.76442 | 35148 ft | 449 kts | 128° |
| 2026-05-08 00:21 | 23.58968 | -103.70892 | 35146 ft | 449 kts | 128° |
| 2026-05-08 00:22 | 23.55140 | -103.65306 | 35146 ft | 450 kts | 128° |
| 2026-05-08 00:22 | 23.51357 | -103.59794 | 35149 ft | 449 kts | 128° |
| 2026-05-08 00:23 | 23.47533 | -103.54229 | 35145 ft | 449 kts | 128° |
| 2026-05-08 00:23 | 23.43674 | -103.48608 | 35147 ft | 450 kts | 128° |
| 2026-05-08 00:24 | 23.39829 | -103.43009 | 35148 ft | 449 kts | 128° |
| 2026-05-08 00:24 | 23.36015 | -103.37463 | 35146 ft | 449 kts | 128° |
| 2026-05-08 00:25 | 23.32154 | -103.31843 | 35124 ft | 449 kts | 128° |
| 2026-05-08 00:25 | 23.28288 | -103.26216 | 35147 ft | 449 kts | 129° |
| 2026-05-08 00:26 | 23.24418 | -103.20606 | 35147 ft | 449 kts | 129° |
| 2026-05-08 00:26 | 23.20582 | -103.15052 | 35147 ft | 450 kts | 128° |
| 2026-05-08 00:27 | 23.16717 | -103.09463 | 35148 ft | 450 kts | 128° |
| 2026-05-08 00:27 | 23.12860 | -103.03922 | 35147 ft | 451 kts | 128° |
| 2026-05-08 00:28 | 23.09003 | -102.98393 | 35147 ft | 451 kts | 128° |
| 2026-05-08 00:28 | 23.05158 | -102.92857 | 35147 ft | 452 kts | 128° |
| 2026-05-08 00:29 | 23.01309 | -102.87316 | 35152 ft | 451 kts | 128° |
| 2026-05-08 00:29 | 22.97497 | -102.81834 | 35149 ft | 448 kts | 128° |
| 2026-05-08 00:30 | 22.93715 | -102.76402 | 35144 ft | 444 kts | 128° |
| 2026-05-08 00:30 | 22.89923 | -102.70961 | 35144 ft | 442 kts | 128° |
| 2026-05-08 00:31 | 22.85721 | -102.65829 | 35137 ft | 439 kts | 135° |
| 2026-05-08 00:31 | 22.81306 | -102.60942 | 35146 ft | 441 kts | 135° |
| 2026-05-08 00:32 | 22.76954 | -102.56048 | 35149 ft | 441 kts | 135° |
| 2026-05-08 00:32 | 22.72611 | -102.51155 | 35148 ft | 441 kts | 135° |
| 2026-05-08 00:33 | 22.68356 | -102.46366 | 35144 ft | 441 kts | 135° |
| 2026-05-08 00:33 | 22.64000 | -102.41470 | 35146 ft | 441 kts | 135° |
| 2026-05-08 00:34 | 22.59752 | -102.36697 | 35148 ft | 441 kts | 135° |
| 2026-05-08 00:34 | 22.55455 | -102.31861 | 35130 ft | 441 kts | 135° |
| 2026-05-08 00:35 | 22.51125 | -102.26991 | 35147 ft | 441 kts | 135° |
| 2026-05-08 00:35 | 22.46812 | -102.22159 | 35148 ft | 441 kts | 135° |
| 2026-05-08 00:36 | 22.42508 | -102.17344 | 35146 ft | 441 kts | 135° |
| 2026-05-08 00:36 | 22.38136 | -102.12457 | 35147 ft | 441 kts | 135° |
| 2026-05-08 00:37 | 22.33738 | -102.07576 | 35145 ft | 441 kts | 135° |
| 2026-05-08 00:38 | 22.27241 | -102.00362 | 35146 ft | 441 kts | 135° |
| 2026-05-08 00:38 | 22.22892 | -101.95518 | 35147 ft | 441 kts | 135° |
| 2026-05-08 00:39 | 22.18518 | -101.90652 | 35146 ft | 441 kts | 135° |
| 2026-05-08 00:39 | 22.14106 | -101.85747 | 35148 ft | 441 kts | 135° |
| 2026-05-08 00:40 | 22.09695 | -101.80823 | 35147 ft | 441 kts | 135° |
| 2026-05-08 00:40 | 22.05257 | -101.75940 | 35144 ft | 442 kts | 135° |
| 2026-05-08 00:41 | 22.00803 | -101.70998 | 35146 ft | 441 kts | 135° |
| 2026-05-08 00:41 | 21.96381 | -101.66093 | 35137 ft | 441 kts | 135° |
| 2026-05-08 00:42 | 21.91963 | -101.61204 | 35131 ft | 441 kts | 135° |
| 2026-05-08 00:42 | 21.87568 | -101.56359 | 35100 ft | 441 kts | 135° |
| 2026-05-08 00:43 | 21.83176 | -101.51533 | 35122 ft | 441 kts | 135° |
| 2026-05-08 00:43 | 21.78856 | -101.46815 | 35120 ft | 441 kts | 135° |
| 2026-05-08 00:44 | 21.74593 | -101.42125 | 35119 ft | 441 kts | 135° |
| 2026-05-08 00:44 | 21.70180 | -101.37266 | 35122 ft | 441 kts | 135° |
| 2026-05-08 00:45 | 21.65868 | -101.32512 | 35097 ft | 441 kts | 135° |
| 2026-05-08 00:45 | 21.61538 | -101.27735 | 35123 ft | 441 kts | 135° |
| 2026-05-08 00:46 | 21.57253 | -101.23028 | 35120 ft | 441 kts | 135° |
| 2026-05-08 00:46 | 21.52882 | -101.18233 | 35117 ft | 441 kts | 135° |
| 2026-05-08 00:47 | 21.48430 | -101.13354 | 35119 ft | 441 kts | 135° |
| 2026-05-08 00:47 | 21.43976 | -101.08476 | 35119 ft | 441 kts | 135° |
| 2026-05-08 00:48 | 21.39549 | -101.03633 | 35118 ft | 441 kts | 135° |
| 2026-05-08 00:48 | 21.35258 | -100.98943 | 35118 ft | 442 kts | 135° |
| 2026-05-08 00:49 | 21.30924 | -100.94208 | 35122 ft | 443 kts | 135° |
| 2026-05-08 00:49 | 21.26629 | -100.89525 | 35120 ft | 444 kts | 135° |
| 2026-05-08 00:50 | 21.22299 | -100.84805 | 35118 ft | 445 kts | 136° |
| 2026-05-08 00:50 | 21.17967 | -100.80087 | 35122 ft | 446 kts | 136° |
| 2026-05-08 00:51 | 21.13552 | -100.75283 | 35122 ft | 446 kts | 135° |
| 2026-05-08 00:51 | 21.09015 | -100.70351 | 35126 ft | 445 kts | 135° |
| 2026-05-08 00:52 | 21.04526 | -100.65475 | 35124 ft | 441 kts | 135° |
| 2026-05-08 00:52 | 21.00115 | -100.60689 | 35123 ft | 438 kts | 135° |
| 2026-05-08 00:53 | 20.95752 | -100.55959 | 35127 ft | 435 kts | 135° |
| 2026-05-08 00:53 | 20.91515 | -100.51370 | 35122 ft | 434 kts | 135° |
| 2026-05-08 00:54 | 20.87224 | -100.46812 | 35105 ft | 435 kts | 135° |
| 2026-05-08 00:54 | 20.82928 | -100.42207 | 35130 ft | 436 kts | 135° |
| 2026-05-08 00:55 | 20.78668 | -100.37608 | 35131 ft | 436 kts | 135° |
| 2026-05-08 00:55 | 20.74327 | -100.32913 | 35099 ft | 436 kts | 135° |
| 2026-05-08 00:56 | 20.70001 | -100.28229 | 35129 ft | 435 kts | 135° |
| 2026-05-08 00:56 | 20.65758 | -100.23655 | 35129 ft | 436 kts | 135° |
| 2026-05-08 00:57 | 20.61502 | -100.19024 | 35125 ft | 435 kts | 131° |
| 2026-05-08 00:57 | 20.57680 | -100.13865 | 35127 ft | 436 kts | 127° |
| 2026-05-08 00:58 | 20.53897 | -100.08652 | 35131 ft | 436 kts | 128° |
| 2026-05-08 00:58 | 20.50046 | -100.03391 | 35142 ft | 435 kts | 128° |
| 2026-05-08 00:59 | 20.46221 | -99.98170 | 35175 ft | 435 kts | 128° |
| 2026-05-08 00:59 | 20.42350 | -99.92887 | 35209 ft | 435 kts | 128° |
| 2026-05-08 01:00 | 20.38517 | -99.87663 | 35239 ft | 435 kts | 128° |
| 2026-05-08 01:00 | 20.34675 | -99.82439 | 35272 ft | 435 kts | 128° |
| 2026-05-08 01:01 | 20.30769 | -99.77140 | 35277 ft | 435 kts | 128° |
| 2026-05-08 01:01 | 20.26917 | -99.71901 | 35274 ft | 435 kts | 128° |
| 2026-05-08 01:02 | 20.23123 | -99.66744 | 35275 ft | 435 kts | 128° |
| 2026-05-08 01:02 | 20.19283 | -99.61530 | 35275 ft | 435 kts | 128° |
| 2026-05-08 01:03 | 20.15434 | -99.56308 | 35255 ft | 436 kts | 128° |
| 2026-05-08 01:03 | 20.13483 | -99.53663 | 34824 ft | 439 kts | 128° |
| 2026-05-08 01:03 | 20.11569 | -99.51070 | 34319 ft | 437 kts | 128° |
| 2026-05-08 01:03 | 20.09634 | -99.48450 | 33805 ft | 435 kts | 128° |
| 2026-05-08 01:04 | 20.07734 | -99.45878 | 33298 ft | 434 kts | 128° |
| 2026-05-08 01:04 | 20.05809 | -99.43273 | 32787 ft | 435 kts | 128° |
| 2026-05-08 01:04 | 20.03862 | -99.40639 | 32275 ft | 437 kts | 128° |
| 2026-05-08 01:04 | 20.01926 | -99.38021 | 31766 ft | 438 kts | 128° |
| 2026-05-08 01:05 | 19.99989 | -99.35404 | 31258 ft | 439 kts | 128° |
| 2026-05-08 01:05 | 19.98041 | -99.32764 | 30710 ft | 441 kts | 128° |
| 2026-05-08 01:05 | 19.96107 | -99.30143 | 30199 ft | 441 kts | 128° |
| 2026-05-08 01:05 | 19.94170 | -99.27523 | 29694 ft | 442 kts | 128° |
| 2026-05-08 01:06 | 19.92246 | -99.24926 | 29193 ft | 443 kts | 128° |
| 2026-05-08 01:06 | 19.90293 | -99.22292 | 28686 ft | 444 kts | 128° |
| 2026-05-08 01:06 | 19.88347 | -99.19679 | 28151 ft | 445 kts | 128° |
| 2026-05-08 01:06 | 19.86425 | -99.17105 | 27654 ft | 446 kts | 128° |
| 2026-05-08 01:07 | 19.84479 | -99.14491 | 27153 ft | 447 kts | 128° |
| 2026-05-08 01:07 | 19.82555 | -99.11904 | 26659 ft | 448 kts | 128° |
| 2026-05-08 01:07 | 19.80660 | -99.09355 | 26172 ft | 449 kts | 128° |
| 2026-05-08 01:07 | 19.78716 | -99.06741 | 25671 ft | 449 kts | 128° |
| 2026-05-08 01:08 | 19.76798 | -99.04163 | 25175 ft | 446 kts | 128° |
| 2026-05-08 01:08 | 19.74880 | -99.01585 | 24673 ft | 442 kts | 128° |
| 2026-05-08 01:08 | 19.72857 | -98.99122 | 24171 ft | 439 kts | 134° |
| 2026-05-08 01:08 | 19.70704 | -98.96802 | 23662 ft | 436 kts | 134° |
| 2026-05-08 01:09 | 19.68563 | -98.94489 | 23158 ft | 434 kts | 134° |
| 2026-05-08 01:09 | 19.66412 | -98.92137 | 22645 ft | 430 kts | 134° |
| 2026-05-08 01:09 | 19.64270 | -98.89783 | 22126 ft | 427 kts | 134° |
| 2026-05-08 01:09 | 19.62146 | -98.87447 | 21608 ft | 423 kts | 134° |
| 2026-05-08 01:10 | 19.60041 | -98.85131 | 21090 ft | 420 kts | 133° |
| 2026-05-08 01:10 | 19.57960 | -98.82842 | 20574 ft | 416 kts | 134° |
| 2026-05-08 01:10 | 19.55891 | -98.80566 | 20057 ft | 413 kts | 133° |
| 2026-05-08 01:10 | 19.53876 | -98.78351 | 19549 ft | 410 kts | 134° |
| 2026-05-08 01:11 | 19.51833 | -98.76105 | 19030 ft | 406 kts | 134° |
| 2026-05-08 01:11 | 19.49866 | -98.73945 | 18693 ft | 389 kts | 134° |
| 2026-05-08 01:11 | 19.47979 | -98.71877 | 18443 ft | 371 kts | 134° |
| 2026-05-08 01:11 | 19.46197 | -98.69954 | 18201 ft | 354 kts | 134° |
| 2026-05-08 01:12 | 19.44473 | -98.68099 | 17955 ft | 338 kts | 134° |
| 2026-05-08 01:12 | 19.42794 | -98.66293 | 17574 ft | 336 kts | 134° |
| 2026-05-08 01:12 | 19.41105 | -98.64474 | 17019 ft | 336 kts | 134° |
| 2026-05-08 01:12 | 19.39423 | -98.62662 | 16448 ft | 333 kts | 134° |
| 2026-05-08 01:13 | 19.37741 | -98.60849 | 15874 ft | 328 kts | 134° |
| 2026-05-08 01:13 | 19.36102 | -98.59081 | 15307 ft | 324 kts | 134° |
| 2026-05-08 01:13 | 19.34502 | -98.57352 | 14746 ft | 321 kts | 134° |
| 2026-05-08 01:13 | 19.32912 | -98.55634 | 14182 ft | 317 kts | 134° |
| 2026-05-08 01:14 | 19.31353 | -98.53948 | 13624 ft | 314 kts | 134° |
| 2026-05-08 01:14 | 19.29816 | -98.52285 | 13068 ft | 311 kts | 134° |
| 2026-05-08 01:14 | 19.28281 | -98.50620 | 12507 ft | 308 kts | 134° |
| 2026-05-08 01:14 | 19.26778 | -98.48989 | 11952 ft | 305 kts | 134° |
| 2026-05-08 01:15 | 19.25256 | -98.47337 | 11385 ft | 303 kts | 134° |
| 2026-05-08 01:15 | 19.23780 | -98.45735 | 10830 ft | 301 kts | 134° |
| 2026-05-08 01:15 | 19.22312 | -98.44142 | 10281 ft | 298 kts | 134° |
| 2026-05-08 01:15 | 19.20868 | -98.42577 | 10081 ft | 294 kts | 134° |
| 2026-05-08 01:16 | 19.19363 | -98.40945 | 9975 ft | 296 kts | 134° |
| 2026-05-08 01:16 | 19.17889 | -98.39343 | 9981 ft | 295 kts | 134° |
| 2026-05-08 01:16 | 19.16337 | -98.37823 | 9975 ft | 296 kts | 148° |
| 2026-05-08 01:16 | 19.14442 | -98.36708 | 9996 ft | 298 kts | 152° |
| 2026-05-08 01:17 | 19.12604 | -98.35665 | 10018 ft | 285 kts | 148° |
| 2026-05-08 01:17 | 19.10895 | -98.34539 | 10013 ft | 266 kts | 148° |
| 2026-05-08 01:17 | 19.09306 | -98.33486 | 9843 ft | 254 kts | 148° |
| 2026-05-08 01:17 | 19.07781 | -98.32513 | 9594 ft | 244 kts | 151° |
| 2026-05-08 01:18 | 19.06271 | -98.31649 | 9456 ft | 236 kts | 152° |
| 2026-05-08 01:18 | 19.04777 | -98.30801 | 9456 ft | 236 kts | 152° |
| 2026-05-08 01:18 | 19.03222 | -98.30039 | 9473 ft | 238 kts | 170° |
| 2026-05-08 01:18 | 19.01567 | -98.30233 | 9494 ft | 237 kts | 209° |
| 2026-05-08 01:19 | 19.00414 | -98.31481 | 9496 ft | 236 kts | 249° |
| 2026-05-08 01:19 | 19.00149 | -98.33223 | 9491 ft | 235 kts | 281° |
| 2026-05-08 01:19 | 19.00922 | -98.34751 | 9490 ft | 233 kts | 320° |
| 2026-05-08 01:19 | 19.02361 | -98.35610 | 9506 ft | 233 kts | 337° |
| 2026-05-08 01:20 | 19.03908 | -98.36275 | 9332 ft | 227 kts | 338° |
| 2026-05-08 01:20 | 19.05447 | -98.36687 | 9016 ft | 215 kts | 356° |
| 2026-05-08 01:20 | 19.06937 | -98.36765 | 8694 ft | 199 kts | 357° |
| 2026-05-08 01:20 | 19.08301 | -98.36821 | 8366 ft | 184 kts | 357° |
| 2026-05-08 01:21 | 19.09538 | -98.36890 | 8233 ft | 161 kts | 356° |
| 2026-05-08 01:21 | 19.10705 | -98.36952 | 8152 ft | 165 kts | 355° |
| 2026-05-08 01:21 | 19.11873 | -98.37003 | 7900 ft | 162 kts | 357° |
| 2026-05-08 01:21 | 19.13005 | -98.37049 | 7658 ft | 154 kts | 357° |
| 2026-05-08 01:22 | 19.14123 | -98.37094 | 7454 ft | 157 kts | 357° |
| 2026-05-08 01:22 | 19.15206 | -98.37130 | 7368 ft | 139 kts | 358° |
| 2026-05-08 01:22 | 19.16025 | -98.37162 | 7367 ft | 86 kts | 359° |
| 2026-05-08 01:22 | 19.16499 | -98.37175 | 7367 ft | 46 kts | 358° |
| 2026-05-08 01:23 | 19.16674 | -98.37183 | 7367 ft | 14 kts | 357° |
| 2026-05-08 01:23 | 19.16718 | -98.37226 | 7367 ft | 11 kts | 244° |
| 2026-05-08 01:23 | 19.16663 | -98.37269 | 7367 ft | 9 kts | 208° |
| 2026-05-08 01:23 | 19.16620 | -98.37293 | 7367 ft | 7 kts | 208° |
| 2026-05-08 01:24 | 19.16573 | -98.37319 | 7367 ft | 7 kts | 208° |
| 2026-05-08 01:24 | 19.16527 | -98.37346 | 7367 ft | 7 kts | 209° |
| 2026-05-08 01:24 | 19.16490 | -98.37371 | 7367 ft | 4 kts | 223° |
| 2026-05-08 01:24 | 19.16472 | -98.37399 | 7367 ft | 4 kts | 251° |
| 2026-05-08 01:25 | 19.16450 | -98.37435 | 7367 ft | 7 kts | 205° |
| 2026-05-08 01:25 | 19.16407 | -98.37436 | 7367 ft | 2 kts | 176° |
| 2026-05-08 01:25 | 19.16390 | -98.37434 | 7367 ft | 3 kts | 176° |
| 2026-05-08 01:25 | 19.16362 | -98.37434 | 7367 ft | 5 kts | 193° |
| 2026-05-08 01:26 | 19.16346 | -98.37472 | 7367 ft | 5 kts | 269° |
| 2026-05-08 01:26 | 19.16345 | -98.37493 | 7367 ft | 1 kts | 267° |
| 2026-05-08 01:26 | 19.16345 | -98.37499 | 7367 ft | 0 kts | 267° |